sensor_id;sensor_type;location;lat;lon;timestamp;pressure;altitude;pressure_sealevel;temperature;humidity
21960;BME280;11144;43.030;25.108;2023-03-11T00:00:51;97264.41;;;12.17;100.00
21960;BME280;11144;43.030;25.108;2023-03-11T00:02:24;97265.97;;;12.08;100.00
21960;BME280;11144;43.030;25.108;2023-03-11T00:03:58;97258.81;;;11.98;100.00
21960;BME280;11144;43.030;25.108;2023-03-11T00:05:33;97267.78;;;11.84;100.00
21960;BME280;11144;43.030;25.108;2023-03-11T00:07:08;97254.66;;;11.83;100.00
21960;BME280;11144;43.030;25.108;2023-03-11T00:08:41;97263.44;;;11.83;100.00
21960;BME280;11144;43.030;25.108;2023-03-11T00:10:15;97258.38;;;11.80;100.00
21960;BME280;11144;43.030;25.108;2023-03-11T00:11:47;97251.50;;;11.78;100.00
21960;BME280;11144;43.030;25.108;2023-03-11T00:13:21;97250.53;;;11.79;100.00
21960;BME280;11144;43.030;25.108;2023-03-11T00:14:54;97245.38;;;11.77;100.00
21960;BME280;11144;43.030;25.108;2023-03-11T00:16:28;97247.16;;;11.77;100.00
21960;BME280;11144;43.030;25.108;2023-03-11T00:18:02;97242.81;;;11.76;100.00
21960;BME280;11144;43.030;25.108;2023-03-11T00:19:35;97242.00;;;11.75;100.00
21960;BME280;11144;43.030;25.108;2023-03-11T00:21:13;97242.81;;;11.76;100.00
21960;BME280;11144;43.030;25.108;2023-03-11T00:22:47;97243.03;;;11.73;100.00
21960;BME280;11144;43.030;25.108;2023-03-11T00:24:22;97245.59;;;11.74;100.00
21960;BME280;11144;43.030;25.108;2023-03-11T00:25:55;97237.66;;;11.74;100.00
21960;BME280;11144;43.030;25.108;2023-03-11T00:27:30;97236.72;;;11.75;100.00
21960;BME280;11144;43.030;25.108;2023-03-11T00:29:03;97244.13;;;11.70;100.00
21960;BME280;11144;43.030;25.108;2023-03-11T00:30:40;97245.69;;;11.73;100.00
21960;BME280;11144;43.030;25.108;2023-03-11T00:32:15;97247.97;;;11.66;100.00
21960;BME280;11144;43.030;25.108;2023-03-11T00:33:47;97253.47;;;11.63;100.00
21960;BME280;11144;43.030;25.108;2023-03-11T00:35:24;97244.59;;;11.64;100.00
21960;BME280;11144;43.030;25.108;2023-03-11T00:36:57;97250.00;;;11.63;100.00
21960;BME280;11144;43.030;25.108;2023-03-11T00:38:30;97247.97;;;11.66;100.00
21960;BME280;11144;43.030;25.108;2023-03-11T00:40:05;97244.81;;;11.61;100.00
21960;BME280;11144;43.030;25.108;2023-03-11T00:41:39;97245.84;;;11.59;100.00
21960;BME280;11144;43.030;25.108;2023-03-11T00:43:13;97241.59;;;11.56;100.00
21960;BME280;11144;43.030;25.108;2023-03-11T00:44:46;97244.81;;;11.61;100.00
21960;BME280;11144;43.030;25.108;2023-03-11T00:46:21;97238.22;;;11.67;100.00
21960;BME280;11144;43.030;25.108;2023-03-11T00:47:55;97244.13;;;11.70;100.00
21960;BME280;11144;43.030;25.108;2023-03-11T00:49:29;97245.94;;;11.70;100.00
21960;BME280;11144;43.030;25.108;2023-03-11T00:51:02;97233.53;;;11.70;100.00
21960;BME280;11144;43.030;25.108;2023-03-11T00:52:35;97227.75;;;11.65;100.00
21960;BME280;11144;43.030;25.108;2023-03-11T00:54:09;97230.81;;;11.59;100.00
21960;BME280;11144;43.030;25.108;2023-03-11T00:55:43;97234.63;;;11.55;100.00
21960;BME280;11144;43.030;25.108;2023-03-11T00:57:17;97235.81;;;11.51;100.00
21960;BME280;11144;43.030;25.108;2023-03-11T00:58:49;97232.69;;;11.46;100.00
21960;BME280;11144;43.030;25.108;2023-03-11T01:00:23;97228.22;;;11.47;100.00
21960;BME280;11144;43.030;25.108;2023-03-11T01:01:58;97219.22;;;11.49;100.00
21960;BME280;11144;43.030;25.108;2023-03-11T01:03:31;97217.50;;;11.48;100.00
21960;BME280;11144;43.030;25.108;2023-03-11T01:05:05;97212.00;;;11.51;100.00
21960;BME280;11144;43.030;25.108;2023-03-11T01:06:38;97208.88;;;11.46;100.00
21960;BME280;11144;43.030;25.108;2023-03-11T01:08:16;97208.44;;;11.40;100.00
21960;BME280;11144;43.030;25.108;2023-03-11T01:09:50;97202.53;;;11.36;100.00
21960;BME280;11144;43.030;25.108;2023-03-11T01:11:22;97207.09;;;11.34;100.00
21960;BME280;11144;43.030;25.108;2023-03-11T01:12:55;97211.88;;;11.29;100.00
21960;BME280;11144;43.030;25.108;2023-03-11T01:14:28;97201.31;;;11.29;100.00
21960;BME280;11144;43.030;25.108;2023-03-11T01:16:01;97202.97;;;11.30;100.00
21960;BME280;11144;43.030;25.108;2023-03-11T01:17:36;97192.66;;;11.27;100.00
21960;BME280;11144;43.030;25.108;2023-03-11T01:19:09;97189.03;;;11.28;100.00
21960;BME280;11144;43.030;25.108;2023-03-11T01:20:43;97193.38;;;11.29;100.00
21960;BME280;11144;43.030;25.108;2023-03-11T01:22:16;97192.41;;;11.30;100.00
21960;BME280;11144;43.030;25.108;2023-03-11T01:23:49;97189.25;;;11.25;100.00
21960;BME280;11144;43.030;25.108;2023-03-11T01:25:23;97194.53;;;11.25;100.00
21960;BME280;11144;43.030;25.108;2023-03-11T01:26:57;97194.75;;;11.22;100.00
21960;BME280;11144;43.030;25.108;2023-03-11T01:28:29;97182.50;;;11.21;100.00
21960;BME280;11144;43.030;25.108;2023-03-11T01:30:03;97189.94;;;11.16;100.00
21960;BME280;11144;43.030;25.108;2023-03-11T01:31:36;97190.69;;;11.06;100.00
21960;BME280;11144;43.030;25.108;2023-03-11T01:33:14;97192.72;;;11.02;100.00
21960;BME280;11144;43.030;25.108;2023-03-11T01:34:47;97183.97;;;10.89;100.00
21960;BME280;11144;43.030;25.108;2023-03-11T01:36:20;97170.03;;;10.87;100.00
21960;BME280;11144;43.030;25.108;2023-03-11T01:37:53;97167.41;;;10.87;100.00
21960;BME280;11144;43.030;25.108;2023-03-11T01:39:27;97163.19;;;10.85;100.00
21960;BME280;11144;43.030;25.108;2023-03-11T01:41:01;97159.16;;;10.79;100.00
21960;BME280;11144;43.030;25.108;2023-03-11T01:42:34;97156.00;;;10.74;100.00
21960;BME280;11144;43.030;25.108;2023-03-11T01:44:10;97150.91;;;10.71;100.00
21960;BME280;11144;43.030;25.108;2023-03-11T01:46:12;97153.88;;;10.79;100.00
21960;BME280;11144;43.030;25.108;2023-03-11T01:47:46;97151.97;;;10.81;100.00
21960;BME280;11144;43.030;25.108;2023-03-11T01:49:21;97136.97;;;10.82;100.00
21960;BME280;11144;43.030;25.108;2023-03-11T01:50:55;97145.97;;;10.79;100.00
21960;BME280;11144;43.030;25.108;2023-03-11T01:52:29;97131.03;;;10.78;100.00
21960;BME280;11144;43.030;25.108;2023-03-11T01:54:04;97133.47;;;10.81;100.00
21960;BME280;11144;43.030;25.108;2023-03-11T01:55:37;97129.97;;;10.81;100.00
21960;BME280;11144;43.030;25.108;2023-03-11T01:57:12;97125.53;;;10.81;100.00
21960;BME280;11144;43.030;25.108;2023-03-11T01:58:47;97121.91;;;10.82;100.00
21960;BME280;11144;43.030;25.108;2023-03-11T02:00:23;97129.13;;;10.80;100.00
21960;BME280;11144;43.030;25.108;2023-03-11T02:02:00;97129.34;;;10.77;100.00
21960;BME280;11144;43.030;25.108;2023-03-11T02:03:38;97134.03;;;10.74;100.00
21960;BME280;11144;43.030;25.108;2023-03-11T02:05:13;97127.25;;;10.70;100.00
21960;BME280;11144;43.030;25.108;2023-03-11T02:06:47;97138.25;;;10.76;100.00
21960;BME280;11144;43.030;25.108;2023-03-11T02:08:22;97127.66;;;10.76;100.00
21960;BME280;11144;43.030;25.108;2023-03-11T02:09:56;97132.75;;;10.79;100.00
21960;BME280;11144;43.030;25.108;2023-03-11T02:11:30;97129.34;;;10.77;100.00
21960;BME280;11144;43.030;25.108;2023-03-11T02:13:04;97134.63;;;10.77;100.00
21960;BME280;11144;43.030;25.108;2023-03-11T02:14:39;97139.91;;;10.77;100.00
21960;BME280;11144;43.030;25.108;2023-03-11T02:16:14;97136.09;;;10.81;100.00
21960;BME280;11144;43.030;25.108;2023-03-11T02:17:48;97146.56;;;10.83;100.00
21960;BME280;11144;43.030;25.108;2023-03-11T02:19:29;97145.59;;;10.84;100.00
21960;BME280;11144;43.030;25.108;2023-03-11T02:21:17;97146.47;;;10.84;100.00
21960;BME280;11144;43.030;25.108;2023-03-11T02:22:54;97136.22;;;10.80;100.00
21960;BME280;11144;43.030;25.108;2023-03-11T02:24:35;97139.91;;;10.77;100.00
21960;BME280;11144;43.030;25.108;2023-03-11T02:26:14;97139.16;;;10.75;100.00
21960;BME280;11144;43.030;25.108;2023-03-11T02:27:52;97136.53;;;10.75;100.00
21960;BME280;11144;43.030;25.108;2023-03-11T02:29:29;97139.41;;;10.72;100.00
21960;BME280;11144;43.030;25.108;2023-03-11T02:31:04;97135.06;;;10.71;100.00
21960;BME280;11144;43.030;25.108;2023-03-11T02:32:40;97141.81;;;10.75;100.00
21960;BME280;11144;43.030;25.108;2023-03-11T02:34:20;97136.53;;;10.75;100.00
21960;BME280;11144;43.030;25.108;2023-03-11T02:35:54;97141.38;;;10.81;100.00
21960;BME280;11144;43.030;25.108;2023-03-11T02:37:28;97141.38;;;10.81;100.00
21960;BME280;11144;43.030;25.108;2023-03-11T02:39:07;97133.66;;;10.78;100.00
21960;BME280;11144;43.030;25.108;2023-03-11T02:40:52;97139.72;;;10.80;100.00
21960;BME280;11144;43.030;25.108;2023-03-11T02:42:30;97136.84;;;10.83;100.00
21960;BME280;11144;43.030;25.108;2023-03-11T02:44:07;97141.19;;;10.84;100.00
21960;BME280;11144;43.030;25.108;2023-03-11T02:45:44;97140.31;;;10.84;100.00
21960;BME280;11144;43.030;25.108;2023-03-11T02:47:17;97129.13;;;10.80;100.00
21960;BME280;11144;43.030;25.108;2023-03-11T02:48:51;97144.31;;;10.89;100.00
21960;BME280;11144;43.030;25.108;2023-03-11T02:50:27;97142.41;;;10.91;100.00
21960;BME280;11144;43.030;25.108;2023-03-11T02:52:00;97144.44;;;10.88;100.00
21960;BME280;11144;43.030;25.108;2023-03-11T02:53:36;97147.72;;;10.91;100.00
21960;BME280;11144;43.030;25.108;2023-03-11T02:55:11;97144.75;;;10.96;100.00
21960;BME280;11144;43.030;25.108;2023-03-11T02:56:45;97134.78;;;10.99;100.00
21960;BME280;11144;43.030;25.108;2023-03-11T02:58:18;97139.00;;;11.02;100.00
21960;BME280;11144;43.030;25.108;2023-03-11T02:59:53;97130.94;;;11.03;100.00
21960;BME280;11144;43.030;25.108;2023-03-11T03:01:25;97129.06;;;11.05;100.00
21960;BME280;11144;43.030;25.108;2023-03-11T03:02:59;97128.19;;;11.05;100.00
21960;BME280;11144;43.030;25.108;2023-03-11T03:04:32;97123.97;;;11.02;100.00
21960;BME280;11144;43.030;25.108;2023-03-11T03:06:06;97139.22;;;10.99;100.00
21960;BME280;11144;43.030;25.108;2023-03-11T03:07:39;97145.34;;;10.99;100.00
21960;BME280;11144;43.030;25.108;2023-03-11T03:09:12;97154.47;;;10.95;100.00
21960;BME280;11144;43.030;25.108;2023-03-11T03:10:47;97165.47;;;10.89;100.00
21960;BME280;11144;43.030;25.108;2023-03-11T03:12:21;97170.16;;;10.86;100.00
21960;BME280;11144;43.030;25.108;2023-03-11T03:13:54;97166.97;;;10.81;100.00
21960;BME280;11144;43.030;25.108;2023-03-11T03:15:29;97169.09;;;10.76;100.00
21960;BME280;11144;43.030;25.108;2023-03-11T03:17:04;97161.50;;;10.71;100.00
21960;BME280;11144;43.030;25.108;2023-03-11T03:18:37;97155.50;;;10.69;100.00
21960;BME280;11144;43.030;25.108;2023-03-11T03:20:12;97159.81;;;10.70;100.00
21960;BME280;11144;43.030;25.108;2023-03-11T03:21:51;97160.47;;;10.74;100.00
21960;BME280;11144;43.030;25.108;2023-03-11T03:23:25;97159.38;;;10.76;100.00
21960;BME280;11144;43.030;25.108;2023-03-11T03:25:00;97159.78;;;10.83;100.00
21960;BME280;11144;43.030;25.108;2023-03-11T03:26:34;97155.34;;;10.83;100.00
21960;BME280;11144;43.030;25.108;2023-03-11T03:28:09;97159.59;;;10.73;100.00
21960;BME280;11144;43.030;25.108;2023-03-11T03:29:45;97153.28;;;10.63;100.00
21960;BME280;11144;43.030;25.108;2023-03-11T03:31:20;97153.28;;;10.63;100.00
21960;BME280;11144;43.030;25.108;2023-03-11T03:32:54;97144.84;;;10.58;100.00
21960;BME280;11144;43.030;25.108;2023-03-11T03:34:27;97148.88;;;10.51;100.00
21960;BME280;11144;43.030;25.108;2023-03-11T03:35:59;97144.22;;;10.42;100.00
21960;BME280;11144;43.030;25.108;2023-03-11T03:37:40;97138.53;;;10.35;100.00
21960;BME280;11144;43.030;25.108;2023-03-11T03:39:14;97146.56;;;10.34;100.00
21960;BME280;11144;43.030;25.108;2023-03-11T03:40:53;97150.34;;;10.30;100.00
21960;BME280;11144;43.030;25.108;2023-03-11T03:42:27;97155.84;;;10.27;100.00
21960;BME280;11144;43.030;25.108;2023-03-11T03:44:01;97156.09;;;10.24;100.00
21960;BME280;11144;43.030;25.108;2023-03-11T03:45:35;97162.00;;;10.27;100.00
21960;BME280;11144;43.030;25.108;2023-03-11T03:47:10;97156.91;;;10.24;100.00
21960;BME280;11144;43.030;25.108;2023-03-11T03:48:42;97156.50;;;10.18;100.00
21960;BME280;11144;43.030;25.108;2023-03-11T03:50:17;97147.31;;;10.11;100.00
21960;BME280;11144;43.030;25.108;2023-03-11T03:51:52;97157.53;;;10.03;100.00
21960;BME280;11144;43.030;25.108;2023-03-11T03:53:34;97148.84;;;10.01;100.00
21960;BME280;11144;43.030;25.108;2023-03-11T03:55:08;97163.66;;;9.91;100.00
21960;BME280;11144;43.030;25.108;2023-03-11T03:56:42;97167.22;;;9.90;100.00
21960;BME280;11144;43.030;25.108;2023-03-11T03:58:16;97171.66;;;9.89;100.00
21960;BME280;11144;43.030;25.108;2023-03-11T03:59:49;97165.34;;;9.92;100.00
21960;BME280;11144;43.030;25.108;2023-03-11T04:01:23;97165.34;;;9.92;100.00
21960;BME280;11144;43.030;25.108;2023-03-11T04:02:58;97161.72;;;9.93;100.00
21960;BME280;11144;43.030;25.108;2023-03-11T04:04:43;97160.47;;;9.98;100.00
21960;BME280;11144;43.030;25.108;2023-03-11T04:06:18;97156.50;;;10.05;100.00
21960;BME280;11144;43.030;25.108;2023-03-11T04:07:54;97165.59;;;10.14;100.00
21960;BME280;11144;43.030;25.108;2023-03-11T04:09:27;97156.50;;;10.18;100.00
21960;BME280;11144;43.030;25.108;2023-03-11T04:11:01;97151.22;;;10.18;100.00
21960;BME280;11144;43.030;25.108;2023-03-11T04:12:36;97158.84;;;10.22;100.00
21960;BME280;11144;43.030;25.108;2023-03-11T04:14:11;97154.38;;;10.23;100.00
21960;BME280;11144;43.030;25.108;2023-03-11T04:15:50;97156.09;;;10.24;100.00
21960;BME280;11144;43.030;25.108;2023-03-11T04:17:24;97164.00;;;10.24;100.00
21960;BME280;11144;43.030;25.108;2023-03-11T04:19:00;97166.41;;;10.27;100.00
21960;BME280;11144;43.030;25.108;2023-03-11T04:20:37;97162.59;;;10.31;100.00
21960;BME280;11144;43.030;25.108;2023-03-11T04:22:11;97169.59;;;10.32;100.00
21960;BME280;11144;43.030;25.108;2023-03-11T04:23:44;97167.69;;;10.34;100.00
21960;BME280;11144;43.030;25.108;2023-03-11T04:25:20;97176.97;;;10.39;100.00
21960;BME280;11144;43.030;25.108;2023-03-11T04:26:53;97179.72;;;10.38;100.00
21960;BME280;11144;43.030;25.108;2023-03-11T04:28:27;97180.78;;;10.48;100.00
21960;BME280;11144;43.030;25.108;2023-03-11T04:29:59;97185.09;;;10.49;100.00
21960;BME280;11144;43.030;25.108;2023-03-11T04:31:34;97191.84;;;10.53;100.00
21960;BME280;11144;43.030;25.108;2023-03-11T04:33:09;97189.97;;;10.55;100.00
21960;BME280;11144;43.030;25.108;2023-03-11T04:34:44;97199.38;;;10.59;100.00
21960;BME280;11144;43.030;25.108;2023-03-11T04:36:19;97200.13;;;10.61;100.00
21960;BME280;11144;43.030;25.108;2023-03-11T04:37:51;97203.47;;;10.63;100.00
21960;BME280;11144;43.030;25.108;2023-03-11T04:39:25;97218.38;;;10.64;100.00
21960;BME280;11144;43.030;25.108;2023-03-11T04:40:59;97216.47;;;10.66;100.00
21960;BME280;11144;43.030;25.108;2023-03-11T04:42:33;97218.16;;;10.67;100.00
21960;BME280;11144;43.030;25.108;2023-03-11T04:44:06;97220.69;;;10.69;100.00
21960;BME280;11144;43.030;25.108;2023-03-11T04:45:38;97224.31;;;10.68;100.00
21960;BME280;11144;43.030;25.108;2023-03-11T04:47:13;97224.50;;;10.65;100.00
21960;BME280;11144;43.030;25.108;2023-03-11T04:48:47;97222.84;;;10.64;100.00
21960;BME280;11144;43.030;25.108;2023-03-11T04:50:22;97220.09;;;10.65;100.00
21960;BME280;11144;43.030;25.108;2023-03-11T04:51:56;97231.72;;;10.63;100.00
21960;BME280;11144;43.030;25.108;2023-03-11T04:53:30;97232.53;;;10.63;100.00
21960;BME280;11144;43.030;25.108;2023-03-11T04:55:05;97224.09;;;10.58;100.00
21960;BME280;11144;43.030;25.108;2023-03-11T04:56:38;97239.84;;;10.60;100.00
21960;BME280;11144;43.030;25.108;2023-03-11T04:58:12;97231.28;;;10.56;100.00
21960;BME280;11144;43.030;25.108;2023-03-11T04:59:45;97230.75;;;10.51;100.00
21960;BME280;11144;43.030;25.108;2023-03-11T05:01:19;97221.56;;;10.44;100.00
21960;BME280;11144;43.030;25.108;2023-03-11T05:02:52;97219.22;;;10.39;100.00
21960;BME280;11144;43.030;25.108;2023-03-11T05:04:25;97218.63;;;10.36;100.00
21960;BME280;11144;43.030;25.108;2023-03-11T05:06:00;97219.34;;;10.38;100.00
21960;BME280;11144;43.030;25.108;2023-03-11T05:07:34;97222.84;;;10.38;100.00
21960;BME280;11144;43.030;25.108;2023-03-11T05:09:08;97205.31;;;10.38;100.00
21960;BME280;11144;43.030;25.108;2023-03-11T05:10:43;97212.16;;;10.40;100.00
21960;BME280;11144;43.030;25.108;2023-03-11T05:12:17;97223.69;;;10.39;100.00
21960;BME280;11144;43.030;25.108;2023-03-11T05:13:54;97237.41;;;10.44;100.00
21960;BME280;11144;43.030;25.108;2023-03-11T05:15:27;97240.56;;;10.49;100.00
21960;BME280;11144;43.030;25.108;2023-03-11T05:17:04;97221.16;;;10.50;100.00
21960;BME280;11144;43.030;25.108;2023-03-11T05:18:38;97219.53;;;10.48;100.00
21960;BME280;11144;43.030;25.108;2023-03-11T05:20:12;97217.56;;;10.51;100.00
21960;BME280;11144;43.030;25.108;2023-03-11T05:21:48;97224.09;;;10.58;100.00
21960;BME280;11144;43.030;25.108;2023-03-11T05:23:21;97217.66;;;10.62;100.00
21960;BME280;11144;43.030;25.108;2023-03-11T05:24:55;97232.44;;;10.65;100.00
21960;BME280;11144;43.030;25.108;2023-03-11T05:26:28;97233.19;;;10.67;100.00
21960;BME280;11144;43.030;25.108;2023-03-11T05:28:02;97232.94;;;10.70;100.00
21960;BME280;11144;43.030;25.108;2023-03-11T05:29:38;97230.84;;;10.75;100.00
21960;BME280;11144;43.030;25.108;2023-03-11T05:31:14;97227.22;;;10.88;100.00
21960;BME280;11144;43.030;25.108;2023-03-11T05:32:48;97231.13;;;10.95;100.00
21960;BME280;11144;43.030;25.108;2023-03-11T05:34:22;97236.50;;;11.06;100.00
21960;BME280;11144;43.030;25.108;2023-03-11T05:36:03;97230.53;;;11.15;100.00
21960;BME280;11144;43.030;25.108;2023-03-11T05:37:38;97238.56;;;11.26;100.00
21960;BME280;11144;43.030;25.108;2023-03-11T05:39:12;97239.59;;;11.36;100.00
21960;BME280;11144;43.030;25.108;2023-03-11T05:40:44;97243.97;;;11.48;100.00
21960;BME280;11144;43.030;25.108;2023-03-11T05:42:18;97245.22;;;11.55;100.00
21960;BME280;11144;43.030;25.108;2023-03-11T05:43:55;97251.47;;;11.54;100.00
21960;BME280;11144;43.030;25.108;2023-03-11T05:45:29;97246.50;;;11.50;100.00
21960;BME280;11144;43.030;25.108;2023-03-11T05:47:04;97254.66;;;11.47;100.00
21960;BME280;11144;43.030;25.108;2023-03-11T05:48:39;97248.56;;;11.46;100.00
21960;BME280;11144;43.030;25.108;2023-03-11T05:50:12;97256.88;;;11.53;100.00
21960;BME280;11144;43.030;25.108;2023-03-11T05:51:48;97260.88;;;11.58;100.00
21960;BME280;11144;43.030;25.108;2023-03-11T05:53:23;97253.13;;;11.68;100.00
21960;BME280;11144;43.030;25.108;2023-03-11T05:54:56;97260.28;;;11.78;100.00
21960;BME280;11144;43.030;25.108;2023-03-11T05:56:32;97264.91;;;11.87;100.00
21960;BME280;11144;43.030;25.108;2023-03-11T05:58:06;97267.38;;;12.01;100.00
21960;BME280;11144;43.030;25.108;2023-03-11T05:59:39;97260.19;;;12.14;100.00
21960;BME280;11144;43.030;25.108;2023-03-11T06:01:15;97262.53;;;12.30;100.00
21960;BME280;11144;43.030;25.108;2023-03-11T06:02:48;97256.78;;;12.47;100.00
21960;BME280;11144;43.030;25.108;2023-03-11T06:04:23;97258.03;;;12.76;100.00
21960;BME280;11144;43.030;25.108;2023-03-11T06:05:57;97264.47;;;13.06;100.00
21960;BME280;11144;43.030;25.108;2023-03-11T06:07:30;97259.88;;;13.30;100.00
21960;BME280;11144;43.030;25.108;2023-03-11T06:09:05;97264.53;;;13.60;100.00
21960;BME280;11144;43.030;25.108;2023-03-11T06:10:37;97270.50;;;13.84;100.00
21960;BME280;11144;43.030;25.108;2023-03-11T06:12:10;97261.09;;;14.12;100.00
21960;BME280;11144;43.030;25.108;2023-03-11T06:14:00;97260.75;;;14.37;100.00
21960;BME280;11144;43.030;25.108;2023-03-11T06:15:34;97258.94;;;14.58;100.00
21960;BME280;11144;43.030;25.108;2023-03-11T06:17:08;97262.88;;;14.84;100.00
21960;BME280;11144;43.030;25.108;2023-03-11T06:18:41;97261.44;;;15.10;100.00
21960;BME280;11144;43.030;25.108;2023-03-11T06:20:14;97251.88;;;15.28;100.00
21960;BME280;11144;43.030;25.108;2023-03-11T06:21:48;97254.31;;;15.40;100.00
21960;BME280;11144;43.030;25.108;2023-03-11T06:23:21;97251.00;;;15.57;100.00
21960;BME280;11144;43.030;25.108;2023-03-11T06:24:56;97246.38;;;15.69;100.00
21960;BME280;11144;43.030;25.108;2023-03-11T06:26:30;97253.44;;;15.70;100.00
21960;BME280;11144;43.030;25.108;2023-03-11T06:28:02;97251.03;;;15.67;100.00
21960;BME280;11144;43.030;25.108;2023-03-11T06:29:36;97253.44;;;15.70;100.00
21960;BME280;11144;43.030;25.108;2023-03-11T06:31:11;97254.97;;;15.63;100.00
21960;BME280;11144;43.030;25.108;2023-03-11T06:32:44;97244.31;;;15.63;100.00
21960;BME280;11144;43.030;25.108;2023-03-11T06:34:18;97242.78;;;15.70;100.00
21960;BME280;11144;43.030;25.108;2023-03-11T06:35:57;97245.84;;;15.75;100.00
21960;BME280;11144;43.030;25.108;2023-03-11T06:37:34;97240.25;;;15.78;100.00
21960;BME280;11144;43.030;25.108;2023-03-11T06:39:11;97239.97;;;15.81;100.00
21960;BME280;11144;43.030;25.108;2023-03-11T06:40:46;97247.00;;;15.82;100.00
21960;BME280;11144;43.030;25.108;2023-03-11T06:42:20;97250.47;;;15.73;100.00
21960;BME280;11144;43.030;25.108;2023-03-11T06:43:56;97244.44;;;15.71;100.00
21960;BME280;11144;43.030;25.108;2023-03-11T06:45:31;97252.84;;;15.76;100.00
21960;BME280;11144;43.030;25.108;2023-03-11T06:47:05;97250.03;;;15.68;100.00
21960;BME280;11144;43.030;25.108;2023-03-11T06:48:39;97253.38;;;15.60;100.00
21960;BME280;11144;43.030;25.108;2023-03-11T06:50:12;97258.00;;;15.49;100.00
21960;BME280;11144;43.030;25.108;2023-03-11T06:51:46;97252.16;;;15.34;100.00
21960;BME280;11144;43.030;25.108;2023-03-11T06:53:20;97248.56;;;15.05;100.00
21960;BME280;11144;43.030;25.108;2023-03-11T06:54:53;97245.41;;;14.91;100.00
21960;BME280;11144;43.030;25.108;2023-03-11T06:56:27;97241.66;;;14.73;100.00
21960;BME280;11144;43.030;25.108;2023-03-11T06:58:08;97247.59;;;14.56;100.00
21960;BME280;11144;43.030;25.108;2023-03-11T06:59:42;97244.22;;;14.54;100.00
21960;BME280;11144;43.030;25.108;2023-03-11T07:01:19;97247.06;;;14.62;100.00
21960;BME280;11144;43.030;25.108;2023-03-11T07:02:53;97244.72;;;14.48;100.00
21960;BME280;11144;43.030;25.108;2023-03-11T07:04:30;97233.19;;;14.38;100.00
21960;BME280;11144;43.030;25.108;2023-03-11T07:06:04;97244.53;;;14.40;100.00
21960;BME280;11144;43.030;25.108;2023-03-11T07:07:38;97240.19;;;14.39;100.00
21960;BME280;11144;43.030;25.108;2023-03-11T07:09:11;97246.94;;;14.43;100.00
21960;BME280;11144;43.030;25.108;2023-03-11T07:10:58;97246.56;;;14.47;100.00
21960;BME280;11144;43.030;25.108;2023-03-11T07:12:34;97244.47;;;14.51;100.00
21960;BME280;11144;43.030;25.108;2023-03-11T07:14:07;97249.28;;;14.57;100.00
21960;BME280;11144;43.030;25.108;2023-03-11T07:15:44;97236.69;;;14.59;100.00
21960;BME280;11144;43.030;25.108;2023-03-11T07:17:17;97245.38;;;14.61;100.00
21960;BME280;11144;43.030;25.108;2023-03-11T07:18:54;97252.84;;;14.67;100.00
21960;BME280;11144;43.030;25.108;2023-03-11T07:20:29;97258.34;;;14.75;100.00
21960;BME280;11144;43.030;25.108;2023-03-11T07:22:03;97249.38;;;14.76;100.00
21960;BME280;11144;43.030;25.108;2023-03-11T07:23:36;97246.56;;;14.68;100.00
21960;BME280;11144;43.030;25.108;2023-03-11T07:25:09;97249.53;;;14.54;100.00
21960;BME280;11144;43.030;25.108;2023-03-11T07:26:42;97242.53;;;14.53;100.00
21960;BME280;11144;43.030;25.108;2023-03-11T07:28:17;97250.25;;;14.56;100.00
21960;BME280;11144;43.030;25.108;2023-03-11T07:29:51;97240.56;;;14.55;100.00
21960;BME280;11144;43.030;25.108;2023-03-11T07:31:26;97243.97;;;14.57;100.00
21960;BME280;11144;43.030;25.108;2023-03-11T07:32:59;97238.38;;;14.60;100.00
21960;BME280;11144;43.030;25.108;2023-03-11T07:34:32;97239.81;;;14.64;100.00
21960;BME280;11144;43.030;25.108;2023-03-11T07:36:07;97250.13;;;14.78;100.00
21960;BME280;11144;43.030;25.108;2023-03-11T07:37:41;97245.78;;;14.86;100.00
21960;BME280;11144;43.030;25.108;2023-03-11T07:39:16;97240.50;;;14.96;100.00
21960;BME280;11144;43.030;25.108;2023-03-11T07:40:56;97242.78;;;15.00;100.00
21960;BME280;11144;43.030;25.108;2023-03-11T07:42:30;97236.94;;;15.06;100.00
21960;BME280;11144;43.030;25.108;2023-03-11T07:44:06;97235.56;;;15.12;100.00
21960;BME280;11144;43.030;25.108;2023-03-11T07:45:40;97226.06;;;15.19;100.00
21960;BME280;11144;43.030;25.108;2023-03-11T07:47:13;97225.50;;;15.25;100.00
21960;BME280;11144;43.030;25.108;2023-03-11T07:48:48;97226.66;;;15.32;100.00
21960;BME280;11144;43.030;25.108;2023-03-11T07:50:22;97220.56;;;15.41;100.00
21960;BME280;11144;43.030;25.108;2023-03-11T07:51:55;97216.84;;;15.32;100.00
21960;BME280;11144;43.030;25.108;2023-03-11T07:53:28;97219.38;;;15.34;100.00
21960;BME280;11144;43.030;25.108;2023-03-11T07:55:02;97204.53;;;15.31;100.00
21960;BME280;11144;43.030;25.108;2023-03-11T07:56:36;97216.06;;;15.41;100.00
21960;BME280;11144;43.030;25.108;2023-03-11T07:58:09;97206.13;;;15.43;100.00
21960;BME280;11144;43.030;25.108;2023-03-11T07:59:44;97195.88;;;15.39;100.00
21960;BME280;11144;43.030;25.108;2023-03-11T08:01:19;97204.56;;;15.41;100.00
21960;BME280;11144;43.030;25.108;2023-03-11T08:02:53;97201.78;;;15.52;100.00
21960;BME280;11144;43.030;25.108;2023-03-11T08:04:26;97195.91;;;15.58;100.00
21960;BME280;11144;43.030;25.108;2023-03-11T08:05:59;97193.09;;;15.69;100.00
21960;BME280;11144;43.030;25.108;2023-03-11T08:07:32;97193.69;;;15.72;100.00
21960;BME280;11144;43.030;25.108;2023-03-11T08:09:07;97191.44;;;15.77;100.00